sensor_id;sensor_type;location;lat;lon;timestamp;temperature;humidity
62154;DHT22;48140;45.486;9.226;2022-07-31T00:00:30;26.70;29.30
62154;DHT22;48140;45.486;9.226;2022-07-31T00:02:57;26.70;29.50
62154;DHT22;48140;45.486;9.226;2022-07-31T00:05:24;26.70;29.50
62154;DHT22;48140;45.486;9.226;2022-07-31T00:07:50;26.70;29.70
62154;DHT22;48140;45.486;9.226;2022-07-31T00:10:17;26.60;30.90
62154;DHT22;48140;45.486;9.226;2022-07-31T00:12:43;26.60;29.90
62154;DHT22;48140;45.486;9.226;2022-07-31T00:15:09;26.60;30.00
62154;DHT22;48140;45.486;9.226;2022-07-31T00:17:37;26.60;29.90
62154;DHT22;48140;45.486;9.226;2022-07-31T00:20:03;26.60;30.00
62154;DHT22;48140;45.486;9.226;2022-07-31T00:22:29;26.50;29.90
62154;DHT22;48140;45.486;9.226;2022-07-31T00:24:54;26.50;29.80
62154;DHT22;48140;45.486;9.226;2022-07-31T00:27:20;26.50;30.00
62154;DHT22;48140;45.486;9.226;2022-07-31T00:29:46;26.50;30.00
62154;DHT22;48140;45.486;9.226;2022-07-31T00:32:11;26.50;30.30
62154;DHT22;48140;45.486;9.226;2022-07-31T00:34:37;26.50;30.00
62154;DHT22;48140;45.486;9.226;2022-07-31T00:37:03;26.50;30.00
62154;DHT22;48140;45.486;9.226;2022-07-31T00:39:28;26.40;30.40
62154;DHT22;48140;45.486;9.226;2022-07-31T00:41:55;26.40;30.20
62154;DHT22;48140;45.486;9.226;2022-07-31T00:44:21;26.40;30.20
62154;DHT22;48140;45.486;9.226;2022-07-31T00:46:47;26.40;30.40
62154;DHT22;48140;45.486;9.226;2022-07-31T00:49:13;26.30;30.70
62154;DHT22;48140;45.486;9.226;2022-07-31T00:51:39;26.30;30.40
62154;DHT22;48140;45.486;9.226;2022-07-31T00:54:06;26.30;30.50
62154;DHT22;48140;45.486;9.226;2022-07-31T00:56:32;26.30;30.70
62154;DHT22;48140;45.486;9.226;2022-07-31T00:58:58;26.20;32.00
62154;DHT22;48140;45.486;9.226;2022-07-31T01:01:24;26.20;31.70
62154;DHT22;48140;45.486;9.226;2022-07-31T01:03:50;26.20;31.60
62154;DHT22;48140;45.486;9.226;2022-07-31T01:06:16;26.10;32.20
62154;DHT22;48140;45.486;9.226;2022-07-31T01:08:41;26.10;31.80
62154;DHT22;48140;45.486;9.226;2022-07-31T01:11:13;26.10;32.90
62154;DHT22;48140;45.486;9.226;2022-07-31T01:13:44;26.10;33.00
62154;DHT22;48140;45.486;9.226;2022-07-31T01:16:13;26.10;33.80
62154;DHT22;48140;45.486;9.226;2022-07-31T01:18:40;25.90;34.60
62154;DHT22;48140;45.486;9.226;2022-07-31T01:21:07;25.80;35.20
62154;DHT22;48140;45.486;9.226;2022-07-31T01:24:02;25.80;36.00
62154;DHT22;48140;45.486;9.226;2022-07-31T01:26:52;25.70;36.70
62154;DHT22;48140;45.486;9.226;2022-07-31T01:29:31;25.70;37.50
62154;DHT22;48140;45.486;9.226;2022-07-31T01:32:09;25.60;37.90
62154;DHT22;48140;45.486;9.226;2022-07-31T01:37:22;25.40;38.60
62154;DHT22;48140;45.486;9.226;2022-07-31T01:40:00;25.30;39.20
62154;DHT22;48140;45.486;9.226;2022-07-31T01:42:29;25.20;38.60
62154;DHT22;48140;45.486;9.226;2022-07-31T01:44:59;25.20;38.80
62154;DHT22;48140;45.486;9.226;2022-07-31T01:47:25;25.10;39.10
62154;DHT22;48140;45.486;9.226;2022-07-31T01:49:53;25.10;39.20
62154;DHT22;48140;45.486;9.226;2022-07-31T01:52:21;25.00;38.90
62154;DHT22;48140;45.486;9.226;2022-07-31T01:54:50;25.00;40.00
62154;DHT22;48140;45.486;9.226;2022-07-31T01:57:17;25.00;38.80
62154;DHT22;48140;45.486;9.226;2022-07-31T01:59:45;25.00;39.20
62154;DHT22;48140;45.486;9.226;2022-07-31T02:02:12;25.00;38.80
62154;DHT22;48140;45.486;9.226;2022-07-31T02:04:39;24.90;38.50
62154;DHT22;48140;45.486;9.226;2022-07-31T02:07:05;24.90;38.50
62154;DHT22;48140;45.486;9.226;2022-07-31T02:09:33;24.90;38.20
62154;DHT22;48140;45.486;9.226;2022-07-31T02:12:00;24.90;38.30
62154;DHT22;48140;45.486;9.226;2022-07-31T02:14:26;24.90;38.40
62154;DHT22;48140;45.486;9.226;2022-07-31T02:16:52;24.90;38.20
62154;DHT22;48140;45.486;9.226;2022-07-31T02:19:19;24.90;37.80
62154;DHT22;48140;45.486;9.226;2022-07-31T02:21:45;24.90;37.60
62154;DHT22;48140;45.486;9.226;2022-07-31T02:24:11;24.90;38.00
62154;DHT22;48140;45.486;9.226;2022-07-31T02:26:38;24.90;38.40
62154;DHT22;48140;45.486;9.226;2022-07-31T02:29:06;24.90;38.10
62154;DHT22;48140;45.486;9.226;2022-07-31T02:31:34;24.90;38.90
62154;DHT22;48140;45.486;9.226;2022-07-31T02:34:00;24.90;38.30
62154;DHT22;48140;45.486;9.226;2022-07-31T02:36:27;24.80;38.10
62154;DHT22;48140;45.486;9.226;2022-07-31T02:38:55;24.90;37.60
62154;DHT22;48140;45.486;9.226;2022-07-31T02:41:21;24.90;37.60
62154;DHT22;48140;45.486;9.226;2022-07-31T02:43:48;24.80;37.90
62154;DHT22;48140;45.486;9.226;2022-07-31T02:46:15;24.80;37.80
62154;DHT22;48140;45.486;9.226;2022-07-31T02:48:42;24.80;38.10
62154;DHT22;48140;45.486;9.226;2022-07-31T02:51:08;24.70;38.30
62154;DHT22;48140;45.486;9.226;2022-07-31T02:53:33;24.70;38.80
62154;DHT22;48140;45.486;9.226;2022-07-31T02:56:02;24.70;39.30
62154;DHT22;48140;45.486;9.226;2022-07-31T02:58:28;24.70;40.10
62154;DHT22;48140;45.486;9.226;2022-07-31T03:01:04;24.70;39.40
62154;DHT22;48140;45.486;9.226;2022-07-31T03:03:30;24.60;39.50
62154;DHT22;48140;45.486;9.226;2022-07-31T03:05:56;24.60;40.00
62154;DHT22;48140;45.486;9.226;2022-07-31T03:08:22;24.60;39.30
62154;DHT22;48140;45.486;9.226;2022-07-31T03:10:48;24.60;40.00
62154;DHT22;48140;45.486;9.226;2022-07-31T03:13:15;24.60;39.70
62154;DHT22;48140;45.486;9.226;2022-07-31T03:15:42;24.50;40.90
62154;DHT22;48140;45.486;9.226;2022-07-31T03:18:08;24.60;40.40
62154;DHT22;48140;45.486;9.226;2022-07-31T03:20:40;24.60;40.90
62154;DHT22;48140;45.486;9.226;2022-07-31T03:23:09;24.50;40.50
62154;DHT22;48140;45.486;9.226;2022-07-31T03:25:36;24.60;40.50
62154;DHT22;48140;45.486;9.226;2022-07-31T03:28:01;24.50;40.70
62154;DHT22;48140;45.486;9.226;2022-07-31T03:30:27;24.50;41.40
62154;DHT22;48140;45.486;9.226;2022-07-31T03:32:54;24.50;41.20
62154;DHT22;48140;45.486;9.226;2022-07-31T03:35:20;24.50;42.00
62154;DHT22;48140;45.486;9.226;2022-07-31T03:37:46;24.50;41.20
62154;DHT22;48140;45.486;9.226;2022-07-31T03:40:12;24.40;41.30
62154;DHT22;48140;45.486;9.226;2022-07-31T03:42:38;24.40;41.40
62154;DHT22;48140;45.486;9.226;2022-07-31T03:45:05;24.40;41.60
62154;DHT22;48140;45.486;9.226;2022-07-31T03:47:31;24.40;41.70
62154;DHT22;48140;45.486;9.226;2022-07-31T03:49:59;24.40;42.00
62154;DHT22;48140;45.486;9.226;2022-07-31T03:52:26;24.30;42.50
62154;DHT22;48140;45.486;9.226;2022-07-31T03:54:52;24.20;42.40
62154;DHT22;48140;45.486;9.226;2022-07-31T03:57:19;24.20;42.60
62154;DHT22;48140;45.486;9.226;2022-07-31T03:59:45;24.30;42.50
62154;DHT22;48140;45.486;9.226;2022-07-31T04:02:11;24.30;43.20
62154;DHT22;48140;45.486;9.226;2022-07-31T04:04:37;24.30;44.00
62154;DHT22;48140;45.486;9.226;2022-07-31T04:07:06;24.20;44.00
62154;DHT22;48140;45.486;9.226;2022-07-31T04:09:32;24.30;44.20
62154;DHT22;48140;45.486;9.226;2022-07-31T04:11:57;24.30;43.20
62154;DHT22;48140;45.486;9.226;2022-07-31T04:14:23;24.20;44.20
62154;DHT22;48140;45.486;9.226;2022-07-31T04:16:48;24.20;44.80
62154;DHT22;48140;45.486;9.226;2022-07-31T04:19:14;24.30;44.20
62154;DHT22;48140;45.486;9.226;2022-07-31T04:21:40;24.30;44.30
62154;DHT22;48140;45.486;9.226;2022-07-31T04:24:05;24.20;44.00
62154;DHT22;48140;45.486;9.226;2022-07-31T04:26:32;24.20;43.10
62154;DHT22;48140;45.486;9.226;2022-07-31T04:28:57;24.20;44.00
62154;DHT22;48140;45.486;9.226;2022-07-31T04:31:23;24.20;43.10
62154;DHT22;48140;45.486;9.226;2022-07-31T04:33:49;24.20;43.00
62154;DHT22;48140;45.486;9.226;2022-07-31T04:36:15;24.30;43.70
62154;DHT22;48140;45.486;9.226;2022-07-31T04:38:42;24.40;44.30
62154;DHT22;48140;45.486;9.226;2022-07-31T04:41:07;24.40;44.10
62154;DHT22;48140;45.486;9.226;2022-07-31T04:43:33;24.50;44.30
62154;DHT22;48140;45.486;9.226;2022-07-31T04:45:59;24.60;43.70
62154;DHT22;48140;45.486;9.226;2022-07-31T04:48:24;24.60;43.80
62154;DHT22;48140;45.486;9.226;2022-07-31T04:50:50;24.60;43.10
62154;DHT22;48140;45.486;9.226;2022-07-31T04:53:16;24.70;43.20
62154;DHT22;48140;45.486;9.226;2022-07-31T04:55:41;24.70;43.40
62154;DHT22;48140;45.486;9.226;2022-07-31T04:58:07;24.80;43.90
62154;DHT22;48140;45.486;9.226;2022-07-31T05:00:33;24.90;42.90
62154;DHT22;48140;45.486;9.226;2022-07-31T05:02:58;25.00;41.90
62154;DHT22;48140;45.486;9.226;2022-07-31T05:05:24;25.00;42.50
62154;DHT22;48140;45.486;9.226;2022-07-31T05:07:50;25.10;42.70
62154;DHT22;48140;45.486;9.226;2022-07-31T05:10:15;25.10;42.20
62154;DHT22;48140;45.486;9.226;2022-07-31T05:12:59;25.20;40.60
62154;DHT22;48140;45.486;9.226;2022-07-31T05:15:25;25.20;40.20
62154;DHT22;48140;45.486;9.226;2022-07-31T05:17:51;25.30;40.30
62154;DHT22;48140;45.486;9.226;2022-07-31T05:20:16;25.30;41.20
62154;DHT22;48140;45.486;9.226;2022-07-31T05:22:43;25.30;41.70
62154;DHT22;48140;45.486;9.226;2022-07-31T05:25:09;25.30;40.40
62154;DHT22;48140;45.486;9.226;2022-07-31T05:27:34;25.40;39.70
62154;DHT22;48140;45.486;9.226;2022-07-31T05:30:00;25.50;39.20
62154;DHT22;48140;45.486;9.226;2022-07-31T05:32:25;25.50;39.20
62154;DHT22;48140;45.486;9.226;2022-07-31T05:34:51;25.50;39.70
62154;DHT22;48140;45.486;9.226;2022-07-31T05:37:17;25.60;39.00
62154;DHT22;48140;45.486;9.226;2022-07-31T05:39:42;25.70;38.80
62154;DHT22;48140;45.486;9.226;2022-07-31T05:42:08;25.70;38.50
62154;DHT22;48140;45.486;9.226;2022-07-31T05:44:33;25.80;38.00
62154;DHT22;48140;45.486;9.226;2022-07-31T05:46:59;26.00;38.00
62154;DHT22;48140;45.486;9.226;2022-07-31T05:49:25;26.10;39.40
62154;DHT22;48140;45.486;9.226;2022-07-31T05:51:53;26.20;38.70
62154;DHT22;48140;45.486;9.226;2022-07-31T05:54:19;26.30;39.30
62154;DHT22;48140;45.486;9.226;2022-07-31T05:56:45;26.40;39.70
62154;DHT22;48140;45.486;9.226;2022-07-31T05:59:11;26.50;38.60
62154;DHT22;48140;45.486;9.226;2022-07-31T06:01:37;26.60;38.50
62154;DHT22;48140;45.486;9.226;2022-07-31T06:04:03;26.60;38.00
62154;DHT22;48140;45.486;9.226;2022-07-31T06:06:29;26.70;39.10
62154;DHT22;48140;45.486;9.226;2022-07-31T06:08:54;26.80;38.60
62154;DHT22;48140;45.486;9.226;2022-07-31T06:11:20;26.80;39.40
62154;DHT22;48140;45.486;9.226;2022-07-31T06:13:46;26.90;39.80
62154;DHT22;48140;45.486;9.226;2022-07-31T06:16:14;27.00;39.70
62154;DHT22;48140;45.486;9.226;2022-07-31T06:18:41;27.20;39.70
62154;DHT22;48140;45.486;9.226;2022-07-31T06:21:06;27.20;39.50
62154;DHT22;48140;45.486;9.226;2022-07-31T06:23:32;27.20;39.40
62154;DHT22;48140;45.486;9.226;2022-07-31T06:25:58;27.20;39.20
62154;DHT22;48140;45.486;9.226;2022-07-31T06:28:23;27.30;39.20
62154;DHT22;48140;45.486;9.226;2022-07-31T06:30:49;27.50;39.00
62154;DHT22;48140;45.486;9.226;2022-07-31T06:33:15;27.40;38.30
62154;DHT22;48140;45.486;9.226;2022-07-31T06:35:40;27.60;38.50
62154;DHT22;48140;45.486;9.226;2022-07-31T06:38:06;27.70;38.10
62154;DHT22;48140;45.486;9.226;2022-07-31T06:40:31;27.80;37.80
62154;DHT22;48140;45.486;9.226;2022-07-31T06:42:57;27.70;38.40
62154;DHT22;48140;45.486;9.226;2022-07-31T06:45:23;27.80;37.80
62154;DHT22;48140;45.486;9.226;2022-07-31T06:47:48;27.90;37.70
62154;DHT22;48140;45.486;9.226;2022-07-31T06:50:14;27.80;37.30
62154;DHT22;48140;45.486;9.226;2022-07-31T06:52:40;27.60;37.80
62154;DHT22;48140;45.486;9.226;2022-07-31T06:55:06;27.40;38.10
62154;DHT22;48140;45.486;9.226;2022-07-31T06:57:32;27.40;37.80
62154;DHT22;48140;45.486;9.226;2022-07-31T06:59:57;27.40;37.70
62154;DHT22;48140;45.486;9.226;2022-07-31T07:02:24;27.40;38.10
62154;DHT22;48140;45.486;9.226;2022-07-31T07:04:50;27.20;38.10
62154;DHT22;48140;45.486;9.226;2022-07-31T07:07:16;27.10;38.50
62154;DHT22;48140;45.486;9.226;2022-07-31T07:09:41;27.20;38.30
62154;DHT22;48140;45.486;9.226;2022-07-31T07:12:07;27.30;38.00
62154;DHT22;48140;45.486;9.226;2022-07-31T07:14:33;27.50;37.50
62154;DHT22;48140;45.486;9.226;2022-07-31T07:17:02;27.40;36.70
62154;DHT22;48140;45.486;9.226;2022-07-31T07:19:27;27.50;37.20
62154;DHT22;48140;45.486;9.226;2022-07-31T07:21:53;27.50;37.00
62154;DHT22;48140;45.486;9.226;2022-07-31T07:24:19;27.70;36.30
62154;DHT22;48140;45.486;9.226;2022-07-31T07:26:44;27.80;36.20
62154;DHT22;48140;45.486;9.226;2022-07-31T07:29:10;27.90;36.50
62154;DHT22;48140;45.486;9.226;2022-07-31T07:31:36;27.90;36.10
62154;DHT22;48140;45.486;9.226;2022-07-31T07:34:02;27.70;35.50
62154;DHT22;48140;45.486;9.226;2022-07-31T07:36:31;27.50;36.20
62154;DHT22;48140;45.486;9.226;2022-07-31T07:38:56;27.80;36.00
62154;DHT22;48140;45.486;9.226;2022-07-31T07:41:23;28.10;35.60
62154;DHT22;48140;45.486;9.226;2022-07-31T07:43:49;28.10;35.00
62154;DHT22;48140;45.486;9.226;2022-07-31T07:46:14;28.10;34.70
62154;DHT22;48140;45.486;9.226;2022-07-31T07:48:40;28.00;35.40
62154;DHT22;48140;45.486;9.226;2022-07-31T07:51:08;28.20;35.50
62154;DHT22;48140;45.486;9.226;2022-07-31T07:53:34;28.30;35.20
62154;DHT22;48140;45.486;9.226;2022-07-31T07:56:01;28.20;34.90
62154;DHT22;48140;45.486;9.226;2022-07-31T07:58:26;28.10;35.00
62154;DHT22;48140;45.486;9.226;2022-07-31T08:00:52;28.20;35.30
62154;DHT22;48140;45.486;9.226;2022-07-31T08:03:17;28.50;34.80
62154;DHT22;48140;45.486;9.226;2022-07-31T08:05:43;28.50;33.60
62154;DHT22;48140;45.486;9.226;2022-07-31T08:08:09;28.40;34.40
62154;DHT22;48140;45.486;9.226;2022-07-31T08:10:35;28.60;34.30
62154;DHT22;48140;45.486;9.226;2022-07-31T08:13:00;28.80;33.50
62154;DHT22;48140;45.486;9.226;2022-07-31T08:15:26;28.80;33.30
62154;DHT22;48140;45.486;9.226;2022-07-31T08:17:54;28.60;33.20
62154;DHT22;48140;45.486;9.226;2022-07-31T08:20:19;28.50;33.40
62154;DHT22;48140;45.486;9.226;2022-07-31T08:22:45;28.70;33.70
62154;DHT22;48140;45.486;9.226;2022-07-31T08:25:12;28.70;33.00
62154;DHT22;48140;45.486;9.226;2022-07-31T08:27:38;28.80;33.10
62154;DHT22;48140;45.486;9.226;2022-07-31T08:30:04;29.00;32.70
62154;DHT22;48140;45.486;9.226;2022-07-31T08:32:29;29.00;32.60
62154;DHT22;48140;45.486;9.226;2022-07-31T08:34:56;28.80;32.60
62154;DHT22;48140;45.486;9.226;2022-07-31T08:37:22;29.10;32.70
62154;DHT22;48140;45.486;9.226;2022-07-31T08:39:48;29.30;32.20
62154;DHT22;48140;45.486;9.226;2022-07-31T08:42:15;29.20;32.60
62154;DHT22;48140;45.486;9.226;2022-07-31T08:44:42;29.40;32.50
62154;DHT22;48140;45.486;9.226;2022-07-31T08:47:09;29.40;33.10
62154;DHT22;48140;45.486;9.226;2022-07-31T08:49:40;29.30;33.50
62154;DHT22;48140;45.486;9.226;2022-07-31T08:52:08;29.20;34.40
62154;DHT22;48140;45.486;9.226;2022-07-31T08:54:35;29.40;34.70
62154;DHT22;48140;45.486;9.226;2022-07-31T08:57:02;29.10;35.40
62154;DHT22;48140;45.486;9.226;2022-07-31T08:59:28;29.10;35.40
62154;DHT22;48140;45.486;9.226;2022-07-31T09:01:54;29.10;36.00
62154;DHT22;48140;45.486;9.226;2022-07-31T09:04:22;29.20;36.10
62154;DHT22;48140;45.486;9.226;2022-07-31T09:06:48;29.40;36.60
62154;DHT22;48140;45.486;9.226;2022-07-31T09:09:17;29.70;36.30
62154;DHT22;48140;45.486;9.226;2022-07-31T09:11:49;30.00;35.80
62154;DHT22;48140;45.486;9.226;2022-07-31T09:14:28;29.90;35.90
62154;DHT22;48140;45.486;9.226;2022-07-31T09:16:54;29.90;35.90
62154;DHT22;48140;45.486;9.226;2022-07-31T09:19:22;30.10;33.50
62154;DHT22;48140;45.486;9.226;2022-07-31T09:21:48;29.90;32.80
62154;DHT22;48140;45.486;9.226;2022-07-31T09:24:29;29.60;32.40
62154;DHT22;48140;45.486;9.226;2022-07-31T09:27:04;29.60;32.90
62154;DHT22;48140;45.486;9.226;2022-07-31T09:29:38;29.80;33.20
62154;DHT22;48140;45.486;9.226;2022-07-31T09:32:19;29.90;32.30
62154;DHT22;48140;45.486;9.226;2022-07-31T09:34:46;30.20;31.70
62154;DHT22;48140;45.486;9.226;2022-07-31T09:37:17;30.40;31.40
62154;DHT22;48140;45.486;9.226;2022-07-31T09:39:54;30.60;30.90
62154;DHT22;48140;45.486;9.226;2022-07-31T09:42:21;30.80;30.80
62154;DHT22;48140;45.486;9.226;2022-07-31T09:44:49;31.00;30.10
62154;DHT22;48140;45.486;9.226;2022-07-31T09:47:22;31.00;29.80
62154;DHT22;48140;45.486;9.226;2022-07-31T09:50:02;31.00;30.00
62154;DHT22;48140;45.486;9.226;2022-07-31T09:52:29;31.10;30.20
62154;DHT22;48140;45.486;9.226;2022-07-31T09:55:11;31.10;31.00
62154;DHT22;48140;45.486;9.226;2022-07-31T09:57:48;31.30;30.90
62154;DHT22;48140;45.486;9.226;2022-07-31T10:00:14;31.60;30.60
62154;DHT22;48140;45.486;9.226;2022-07-31T10:02:43;31.80;29.30
62154;DHT22;48140;45.486;9.226;2022-07-31T10:05:10;31.80;28.90
62154;DHT22;48140;45.486;9.226;2022-07-31T10:07:37;31.80;29.10
62154;DHT22;48140;45.486;9.226;2022-07-31T10:10:04;31.50;29.80
62154;DHT22;48140;45.486;9.226;2022-07-31T10:12:33;31.50;29.10
62154;DHT22;48140;45.486;9.226;2022-07-31T10:15:04;31.50;28.80
62154;DHT22;48140;45.486;9.226;2022-07-31T10:17:32;31.70;29.00
62154;DHT22;48140;45.486;9.226;2022-07-31T10:20:04;31.90;28.60
62154;DHT22;48140;45.486;9.226;2022-07-31T10:22:34;32.10;28.50
62154;DHT22;48140;45.486;9.226;2022-07-31T10:25:03;32.20;27.70
62154;DHT22;48140;45.486;9.226;2022-07-31T10:27:29;32.30;28.00
62154;DHT22;48140;45.486;9.226;2022-07-31T10:29:58;32.50;27.70
62154;DHT22;48140;45.486;9.226;2022-07-31T10:32:24;32.60;27.50
62154;DHT22;48140;45.486;9.226;2022-07-31T10:34:50;32.70;27.50
62154;DHT22;48140;45.486;9.226;2022-07-31T10:37:20;32.80;27.80
62154;DHT22;48140;45.486;9.226;2022-07-31T10:42:34;32.50;28.40
62154;DHT22;48140;45.486;9.226;2022-07-31T10:45:09;32.60;28.30
62154;DHT22;48140;45.486;9.226;2022-07-31T10:47:35;32.80;28.10
62154;DHT22;48140;45.486;9.226;2022-07-31T10:50:02;33.10;26.40
62154;DHT22;48140;45.486;9.226;2022-07-31T10:52:34;33.10;25.90
62154;DHT22;48140;45.486;9.226;2022-07-31T10:55:00;33.30;26.00
62154;DHT22;48140;45.486;9.226;2022-07-31T10:59:53;33.40;24.80
62154;DHT22;48140;45.486;9.226;2022-07-31T11:02:33;33.40;24.80
62154;DHT22;48140;45.486;9.226;2022-07-31T11:05:15;33.40;24.60
62154;DHT22;48140;45.486;9.226;2022-07-31T11:07:44;33.60;25.00
62154;DHT22;48140;45.486;9.226;2022-07-31T11:10:14;33.80;24.50
62154;DHT22;48140;45.486;9.226;2022-07-31T11:12:41;34.00;24.10
62154;DHT22;48140;45.486;9.226;2022-07-31T11:15:21;34.10;24.50
62154;DHT22;48140;45.486;9.226;2022-07-31T11:17:47;34.20;24.00
62154;DHT22;48140;45.486;9.226;2022-07-31T11:20:21;34.40;23.90
62154;DHT22;48140;45.486;9.226;2022-07-31T11:23:00;34.50;23.90
62154;DHT22;48140;45.486;9.226;2022-07-31T11:25:29;34.40;22.80
62154;DHT22;48140;45.486;9.226;2022-07-31T11:27:56;34.30;23.10
62154;DHT22;48140;45.486;9.226;2022-07-31T11:30:23;34.40;22.60
62154;DHT22;48140;45.486;9.226;2022-07-31T11:32:50;34.10;22.60
62154;DHT22;48140;45.486;9.226;2022-07-31T11:35:27;34.20;22.60
62154;DHT22;48140;45.486;9.226;2022-07-31T11:37:53;34.50;21.90
62154;DHT22;48140;45.486;9.226;2022-07-31T11:40:19;34.80;22.10
62154;DHT22;48140;45.486;9.226;2022-07-31T11:42:45;35.10;21.60
62154;DHT22;48140;45.486;9.226;2022-07-31T11:45:11;35.20;21.70
62154;DHT22;48140;45.486;9.226;2022-07-31T11:47:40;35.50;21.60
62154;DHT22;48140;45.486;9.226;2022-07-31T11:50:07;35.60;21.00
62154;DHT22;48140;45.486;9.226;2022-07-31T11:52:35;35.60;20.50
62154;DHT22;48140;45.486;9.226;2022-07-31T11:55:14;35.70;21.30
62154;DHT22;48140;45.486;9.226;2022-07-31T11:57:40;35.80;20.90
62154;DHT22;48140;45.486;9.226;2022-07-31T12:00:12;35.70;21.10
62154;DHT22;48140;45.486;9.226;2022-07-31T12:02:43;35.70;21.30
62154;DHT22;48140;45.486;9.226;2022-07-31T12:05:10;35.70;20.90
62154;DHT22;48140;45.486;9.226;2022-07-31T12:07:41;35.30;20.90
62154;DHT22;48140;45.486;9.226;2022-07-31T12:10:11;35.30;21.10
62154;DHT22;48140;45.486;9.226;2022-07-31T12:12:38;35.10;21.20
62154;DHT22;48140;45.486;9.226;2022-07-31T12:15:16;34.30;21.70
62154;DHT22;48140;45.486;9.226;2022-07-31T12:17:43;34.50;21.30
62154;DHT22;48140;45.486;9.226;2022-07-31T12:20:09;35.10;21.80
62154;DHT22;48140;45.486;9.226;2022-07-31T12:22:35;35.60;20.90
62154;DHT22;48140;45.486;9.226;2022-07-31T12:25:01;35.60;20.00
62154;DHT22;48140;45.486;9.226;2022-07-31T12:27:27;35.60;20.50
62154;DHT22;48140;45.486;9.226;2022-07-31T12:29:53;35.50;20.90
62154;DHT22;48140;45.486;9.226;2022-07-31T12:32:25;34.90;23.80
62154;DHT22;48140;45.486;9.226;2022-07-31T12:35:02;34.40;25.80
62154;DHT22;48140;45.486;9.226;2022-07-31T12:37:28;34.10;26.80
62154;DHT22;48140;45.486;9.226;2022-07-31T12:39:54;34.40;27.00
62154;DHT22;48140;45.486;9.226;2022-07-31T12:42:24;35.00;26.20
62154;DHT22;48140;45.486;9.226;2022-07-31T12:44:54;35.20;25.70
62154;DHT22;48140;45.486;9.226;2022-07-31T12:47:21;35.60;25.10
62154;DHT22;48140;45.486;9.226;2022-07-31T12:49:47;36.00;25.50
62154;DHT22;48140;45.486;9.226;2022-07-31T12:52:13;36.40;23.90
62154;DHT22;48140;45.486;9.226;2022-07-31T12:54:38;36.20;23.30
62154;DHT22;48140;45.486;9.226;2022-07-31T12:57:04;35.90;23.80
62154;DHT22;48140;45.486;9.226;2022-07-31T12:59:29;36.30;24.00
62154;DHT22;48140;45.486;9.226;2022-07-31T13:01:55;36.50;23.40
62154;DHT22;48140;45.486;9.226;2022-07-31T13:04:21;36.80;23.20
62154;DHT22;48140;45.486;9.226;2022-07-31T13:06:47;36.70;23.00
62154;DHT22;48140;45.486;9.226;2022-07-31T13:09:13;35.70;23.90
62154;DHT22;48140;45.486;9.226;2022-07-31T13:11:38;35.00;24.90
62154;DHT22;48140;45.486;9.226;2022-07-31T13:14:04;35.10;25.40
62154;DHT22;48140;45.486;9.226;2022-07-31T13:16:30;34.90;25.90
62154;DHT22;48140;45.486;9.226;2022-07-31T13:18:55;34.70;26.20
62154;DHT22;48140;45.486;9.226;2022-07-31T13:21:21;34.50;26.00
62154;DHT22;48140;45.486;9.226;2022-07-31T13:23:46;34.50;25.80
62154;DHT22;48140;45.486;9.226;2022-07-31T13:26:12;34.60;26.20
62154;DHT22;48140;45.486;9.226;2022-07-31T13:28:38;34.90;25.50
62154;DHT22;48140;45.486;9.226;2022-07-31T13:31:03;35.30;25.40
62154;DHT22;48140;45.486;9.226;2022-07-31T13:33:29;35.10;24.90
62154;DHT22;48140;45.486;9.226;2022-07-31T13:35:54;35.00;24.80
62154;DHT22;48140;45.486;9.226;2022-07-31T13:38:20;35.00;25.20
62154;DHT22;48140;45.486;9.226;2022-07-31T13:40:46;34.40;25.80
62154;DHT22;48140;45.486;9.226;2022-07-31T13:43:30;35.10;24.90
62154;DHT22;48140;45.486;9.226;2022-07-31T13:45:55;35.30;24.20
62154;DHT22;48140;45.486;9.226;2022-07-31T13:48:21;35.90;24.20
62154;DHT22;48140;45.486;9.226;2022-07-31T13:50:47;36.40;23.90
62154;DHT22;48140;45.486;9.226;2022-07-31T13:53:12;36.40;24.00
62154;DHT22;48140;45.486;9.226;2022-07-31T13:55:38;36.40;23.70
62154;DHT22;48140;45.486;9.226;2022-07-31T13:58:04;36.50;23.40
62154;DHT22;48140;45.486;9.226;2022-07-31T14:00:30;36.50;23.20
62154;DHT22;48140;45.486;9.226;2022-07-31T14:02:56;36.40;23.20
62154;DHT22;48140;45.486;9.226;2022-07-31T14:05:22;36.60;22.80
62154;DHT22;48140;45.486;9.226;2022-07-31T14:07:47;36.60;22.80
62154;DHT22;48140;45.486;9.226;2022-07-31T14:10:13;36.70;22.60
62154;DHT22;48140;45.486;9.226;2022-07-31T14:12:39;37.00;22.70
62154;DHT22;48140;45.486;9.226;2022-07-31T14:15:06;37.40;22.30
62154;DHT22;48140;45.486;9.226;2022-07-31T14:17:32;36.80;22.00
62154;DHT22;48140;45.486;9.226;2022-07-31T14:19:57;36.50;22.80
62154;DHT22;48140;45.486;9.226;2022-07-31T14:22:23;36.60;22.50
62154;DHT22;48140;45.486;9.226;2022-07-31T14:24:51;36.60;22.50
62154;DHT22;48140;45.486;9.226;2022-07-31T14:27:18;36.70;22.30
62154;DHT22;48140;45.486;9.226;2022-07-31T14:29:43;37.00;22.00
62154;DHT22;48140;45.486;9.226;2022-07-31T14:32:09;37.20;21.80
62154;DHT22;48140;45.486;9.226;2022-07-31T14:34:35;37.10;21.80
62154;DHT22;48140;45.486;9.226;2022-07-31T14:37:00;37.00;21.80
62154;DHT22;48140;45.486;9.226;2022-07-31T14:39:26;37.20;21.90
62154;DHT22;48140;45.486;9.226;2022-07-31T14:41:52;37.30;21.80
62154;DHT22;48140;45.486;9.226;2022-07-31T14:44:17;36.80;21.40
62154;DHT22;48140;45.486;9.226;2022-07-31T14:46:44;36.90;21.90
62154;DHT22;48140;45.486;9.226;2022-07-31T14:49:10;37.20;21.80
62154;DHT22;48140;45.486;9.226;2022-07-31T14:51:36;36.90;21.80
62154;DHT22;48140;45.486;9.226;2022-07-31T14:54:02;37.30;21.30
62154;DHT22;48140;45.486;9.226;2022-07-31T14:56:28;37.60;21.20
62154;DHT22;48140;45.486;9.226;2022-07-31T14:58:54;37.10;21.10
62154;DHT22;48140;45.486;9.226;2022-07-31T15:01:19;36.80;21.40
62154;DHT22;48140;45.486;9.226;2022-07-31T15:03:45;36.90;22.20
62154;DHT22;48140;45.486;9.226;2022-07-31T15:06:14;37.40;21.20
62154;DHT22;48140;45.486;9.226;2022-07-31T15:08:40;37.20;20.70
62154;DHT22;48140;45.486;9.226;2022-07-31T15:11:06;36.60;21.70
62154;DHT22;48140;45.486;9.226;2022-07-31T15:13:31;37.00;21.90
62154;DHT22;48140;45.486;9.226;2022-07-31T15:15:57;37.40;21.40
62154;DHT22;48140;45.486;9.226;2022-07-31T15:18:23;37.40;21.20
62154;DHT22;48140;45.486;9.226;2022-07-31T15:20:48;37.40;21.40
62154;DHT22;48140;45.486;9.226;2022-07-31T15:23:14;36.30;21.60
62154;DHT22;48140;45.486;9.226;2022-07-31T15:25:39;36.40;22.40
62154;DHT22;48140;45.486;9.226;2022-07-31T15:28:05;36.80;21.90
62154;DHT22;48140;45.486;9.226;2022-07-31T15:30:31;36.80;21.80
62154;DHT22;48140;45.486;9.226;2022-07-31T15:32:56;36.30;23.50
62154;DHT22;48140;45.486;9.226;2022-07-31T15:35:22;36.60;21.60
62154;DHT22;48140;45.486;9.226;2022-07-31T15:37:47;36.70;22.00